Time;durP1;ratioP1;P1;durP2;ratioP2;P2;SDS_P1;SDS_P2;PMS_P1;PMS_P2;Temp;Humidity;BMP_temperature;BMP_pressure;BME280_temperature;BME280_humidity;BME280_pressure;Samples;Min_cycle;Max_cycle;Signal;HPM_P1;HPM_P2
2022/11/06 00:00:12;;;;;;;;;;;7.90;83.20;;;;;;5116043;28;19995;-86
2022/11/06 00:02:38;;;;;;;;;;;7.80;82.60;;;;;;5115985;28;20394;-86
2022/11/06 00:07:48;;;;;;;;;;;7.90;83.30;;;;;;5116301;28;20007;-86
2022/11/06 00:10:15;;;;;;;;;;;7.80;83.50;;;;;;5115972;28;20019;-87
2022/11/06 00:12:40;;;;;;;;;;;7.70;83.70;;;;;;5115867;28;19952;-86
2022/11/06 00:15:06;;;;;;;;;;;7.70;83.40;;;;;;5115842;28;19938;-86
2022/11/06 00:17:32;;;;;;;;;;;7.70;82.90;;;;;;5115754;28;20036;-86
2022/11/06 00:19:57;;;;;;;;;;;7.70;83.90;;;;;;5115319;28;19963;-86
2022/11/06 00:22:23;;;;;;;;;;;7.80;83.90;;;;;;5115722;28;20378;-86
2022/11/06 00:24:48;;;;;;;;;;;7.80;83.20;;;;;;5115696;28;19938;-86
2022/11/06 00:27:14;;;;;;;;;;;7.70;82.80;;;;;;5115657;28;19940;-86
2022/11/06 00:29:40;;;;;;;;;;;7.50;82.90;;;;;;5115635;28;19986;-86
2022/11/06 00:32:05;;;;;;;;;;;7.40;84.40;;;;;;5115524;28;20412;-86
2022/11/06 00:34:31;;;;;;;;;;;7.30;85.50;;;;;;5115493;28;20388;-86
2022/11/06 00:36:56;;;;;;;;;;;7.10;85.90;;;;;;5115468;28;20457;-86
2022/11/06 00:39:22;;;;;;;;;;;7.00;86.00;;;;;;5115300;28;20294;-86
2022/11/06 00:41:47;;;;;;;;;;;6.90;86.00;;;;;;5115277;28;19941;-86
2022/11/06 00:44:13;;;;;;;;;;;6.90;85.90;;;;;;5115314;28;19939;-86
2022/11/06 00:46:38;;;;;;;;;;;7.10;85.70;;;;;;5115210;28;19935;-86
2022/11/06 00:49:04;;;;;;;;;;;7.10;85.40;;;;;;5115207;28;19949;-86
2022/11/06 00:51:31;;;;;;;;;;;7.10;85.40;;;;;;5114993;28;19952;-86
2022/11/06 00:53:58;;;;;;;;;;;7.30;85.00;;;;;;5114998;28;19939;-86
2022/11/06 00:56:24;;;;;;;;;;;7.40;84.00;;;;;;5115076;28;19939;-86
2022/11/06 00:58:50;;;;;;;;;;;7.50;83.80;;;;;;5114886;28;20393;-86
2022/11/06 01:01:15;;;;;;;;;;;7.60;83.50;;;;;;5114921;28;19983;-86
2022/11/06 01:03:42;;;;;;;;;;;7.40;83.60;;;;;;5114049;28;19939;-86
2022/11/06 01:06:09;;;;;;;;;;;7.40;84.00;;;;;;5114896;28;19940;-86
2022/11/06 01:08:34;;;;;;;;;;;7.30;83.00;;;;;;5114741;28;19941;-86
2022/11/06 01:11:16;;;;;;;;;;;7.40;83.00;;;;;;5114994;28;19969;-86
2022/11/06 01:13:42;;;;;;;;;;;7.40;83.00;;;;;;5114933;28;20046;-86
2022/11/06 01:16:09;;;;;;;;;;;7.40;82.20;;;;;;5114680;28;19992;-87
2022/11/06 01:18:35;;;;;;;;;;;7.40;82.60;;;;;;5114507;28;20390;-86
2022/11/06 01:21:07;;;;;;;;;;;7.30;83.10;;;;;;5114604;28;19967;-86
2022/11/06 01:23:33;;;;;;;;;;;7.20;83.60;;;;;;5114790;28;19993;-86
2022/11/06 01:26:02;;;;;;;;;;;7.20;83.80;;;;;;5114476;28;20312;-86
2022/11/06 01:28:28;;;;;;;;;;;7.10;83.40;;;;;;5114285;28;19944;-86
2022/11/06 01:30:54;;;;;;;;;;;7.00;84.10;;;;;;5114259;28;20048;-86
2022/11/06 01:33:20;;;;;;;;;;;7.00;84.70;;;;;;5096129;28;20012;-86
2022/11/06 01:35:46;;;;;;;;;;;7.00;85.40;;;;;;5114287;28;19944;-86
2022/11/06 01:38:12;;;;;;;;;;;6.90;83.80;;;;;;5096039;28;19940;-86
2022/11/06 01:40:41;;;;;;;;;;;7.00;83.20;;;;;;5114356;28;20424;-86
2022/11/06 01:43:14;;;;;;;;;;;7.00;83.10;;;;;;5114155;28;19941;-86
2022/11/06 01:45:41;;;;;;;;;;;7.00;83.60;;;;;;5114089;28;20367;-86
2022/11/06 01:48:07;;;;;;;;;;;7.20;84.10;;;;;;5114105;28;19941;-86
2022/11/06 01:50:32;;;;;;;;;;;7.20;84.50;;;;;;5114022;28;19941;-86
2022/11/06 01:53:01;;;;;;;;;;;7.00;83.50;;;;;;5113850;28;19963;-86
2022/11/06 01:55:33;;;;;;;;;;;6.90;82.50;;;;;;5113935;28;19939;-86
2022/11/06 01:58:00;;;;;;;;;;;6.80;83.30;;;;;;5113903;28;19934;-86
2022/11/06 02:00:26;;;;;;;;;;;6.80;84.00;;;;;;5113798;28;19960;-86
2022/11/06 02:02:52;;;;;;;;;;;6.80;84.20;;;;;;5113839;28;19939;-86
2022/11/06 02:05:17;;;;;;;;;;;6.80;84.00;;;;;;5113759;28;19942;-86
2022/11/06 02:07:43;;;;;;;;;;;6.60;81.80;;;;;;5113764;28;19948;-86
2022/11/06 02:10:09;;;;;;;;;;;6.50;82.30;;;;;;5113994;28;20042;-86
2022/11/06 02:12:43;;;;;;;;;;;6.50;82.50;;;;;;5113722;28;20046;-86
2022/11/06 02:15:16;;;;;;;;;;;6.50;83.00;;;;;;5113541;28;20385;-86
2022/11/06 02:17:51;;;;;;;;;;;6.60;83.90;;;;;;5113665;28;19938;-86
2022/11/06 02:20:23;;;;;;;;;;;6.70;84.20;;;;;;5113515;28;19999;-86
2022/11/06 02:23:07;;;;;;;;;;;6.70;85.10;;;;;;5113548;28;19937;-86
2022/11/06 02:25:33;;;;;;;;;;;6.70;85.20;;;;;;5113557;28;19985;-86
2022/11/06 02:28:02;;;;;;;;;;;6.90;84.70;;;;;;5113590;28;19935;-86
2022/11/06 02:30:30;;;;;;;;;;;6.70;84.50;;;;;;5113356;28;19974;-86
2022/11/06 02:33:02;;;;;;;;;;;6.50;84.40;;;;;;5113766;28;20028;-86
2022/11/06 02:35:30;;;;;;;;;;;6.20;84.80;;;;;;5113501;28;19939;-86
2022/11/06 02:37:59;;;;;;;;;;;6.00;86.50;;;;;;5113492;28;19939;-86
2022/11/06 02:40:28;;;;;;;;;;;6.10;87.90;;;;;;5113393;28;20391;-86
2022/11/06 02:42:55;;;;;;;;;;;6.40;87.10;;;;;;5113438;28;20104;-86
2022/11/06 02:45:21;;;;;;;;;;;6.40;86.20;;;;;;5113394;28;19940;-86
2022/11/06 02:47:49;;;;;;;;;;;6.50;85.20;;;;;;5113392;28;20305;-86
2022/11/06 02:50:17;;;;;;;;;;;6.60;84.30;;;;;;5113348;28;19941;-86
2022/11/06 02:52:46;;;;;;;;;;;6.60;84.20;;;;;;5113141;28;20354;-86
2022/11/06 02:55:17;;;;;;;;;;;6.60;84.60;;;;;;5113341;28;19947;-86
2022/11/06 02:57:45;;;;;;;;;;;6.60;84.60;;;;;;5113276;28;19940;-86
2022/11/06 03:00:12;;;;;;;;;;;6.50;84.50;;;;;;5113124;28;20425;-86
2022/11/06 03:02:43;;;;;;;;;;;6.50;84.80;;;;;;5113263;28;19935;-86
2022/11/06 03:05:14;;;;;;;;;;;6.40;85.20;;;;;;5113255;28;20466;-86
2022/11/06 03:07:43;;;;;;;;;;;6.50;85.90;;;;;;5113180;28;19936;-86
2022/11/06 03:10:09;;;;;;;;;;;6.60;85.30;;;;;;5113151;28;19943;-87
2022/11/06 03:12:44;;;;;;;;;;;6.70;85.30;;;;;;5113149;28;20104;-86
2022/11/06 03:15:12;;;;;;;;;;;6.70;85.60;;;;;;5113165;28;20016;-86
2022/11/06 03:17:40;;;;;;;;;;;6.80;85.50;;;;;;5113064;28;20434;-87
2022/11/06 03:20:19;;;;;;;;;;;6.80;85.00;;;;;;5113044;28;19964;-86
2022/11/06 03:22:50;;;;;;;;;;;6.80;84.30;;;;;;5113256;28;20028;-87
2022/11/06 03:25:27;;;;;;;;;;;6.80;84.10;;;;;;5113044;28;19943;-86
2022/11/06 03:28:05;;;;;;;;;;;6.80;82.90;;;;;;5116795;28;19934;-86
2022/11/06 03:30:33;;;;;;;;;;;6.80;83.00;;;;;;5116567;28;20007;-86
2022/11/06 03:33:02;;;;;;;;;;;6.80;83.40;;;;;;5098358;28;19943;-86
2022/11/06 03:35:34;;;;;;;;;;;6.80;83.60;;;;;;5116604;28;19943;-86
2022/11/06 03:38:02;;;;;;;;;;;6.80;83.40;;;;;;5116592;28;20396;-86
2022/11/06 03:40:30;;;;;;;;;;;6.80;83.40;;;;;;5116772;28;19961;-86
2022/11/06 03:42:57;;;;;;;;;;;6.80;83.60;;;;;;5098261;28;19944;-86
2022/11/06 03:45:25;;;;;;;;;;;6.80;83.90;;;;;;5098202;28;20042;-86
2022/11/06 03:48:13;;;;;;;;;;;6.90;84.10;;;;;;5116411;28;20030;-86
2022/11/06 03:50:43;;;;;;;;;;;6.80;83.90;;;;;;5105146;28;20081;-86
2022/11/06 03:53:21;;;;;;;;;;;6.80;83.60;;;;;;5116134;28;20325;-86
2022/11/06 03:55:50;;;;;;;;;;;6.70;83.00;;;;;;5098011;28;20015;-86
2022/11/06 03:58:19;;;;;;;;;;;6.80;83.70;;;;;;5116234;28;20032;-86
2022/11/06 04:00:45;;;;;;;;;;;6.80;84.30;;;;;;5116133;28;19964;-86
2022/11/06 04:03:31;;;;;;;;;;;6.90;84.70;;;;;;5116131;28;19948;-86
2022/11/06 04:06:02;;;;;;;;;;;6.90;83.80;;;;;;5115489;28;19941;-86
2022/11/06 04:14:00;;;;;;;;;;;6.90;84.00;;;;;;5116202;28;19947;-86
2022/11/06 04:16:38;;;;;;;;;;;6.80;84.20;;;;;;5115894;28;19938;-86
2022/11/06 04:19:15;;;;;;;;;;;6.90;84.50;;;;;;5116030;28;19943;-86
2022/11/06 04:22:05;;;;;;;;;;;6.80;83.90;;;;;;5115769;28;19967;-86
2022/11/06 04:27:19;;;;;;;;;;;6.40;84.30;;;;;;5115645;28;20331;-86
2022/11/06 04:29:47;;;;;;;;;;;6.20;85.30;;;;;;5115475;28;19975;-86
2022/11/06 04:32:15;;;;;;;;;;;6.20;86.20;;;;;;5115520;28;20378;-86
2022/11/06 04:34:47;;;;;;;;;;;6.10;86.10;;;;;;5115500;28;19945;-86
2022/11/06 04:37:45;;;;;;;;;;;6.20;86.00;;;;;;5095958;28;19941;-86
2022/11/06 04:40:15;;;;;;;;;;;6.20;86.00;;;;;;5069803;28;20012;-86
2022/11/06 04:42:53;;;;;;;;;;;6.10;85.40;;;;;;5115250;28;19946;-86
2022/11/06 04:45:33;;;;;;;;;;;6.20;85.20;;;;;;5115241;28;19998;-86
2022/11/06 04:48:00;;;;;;;;;;;6.30;84.70;;;;;;5115165;28;19940;-86
2022/11/06 04:50:27;;;;;;;;;;;6.30;84.70;;;;;;5115090;28;19945;-86
2022/11/06 04:52:54;;;;;;;;;;;6.30;85.30;;;;;;5114889;28;20039;-86
2022/11/06 04:55:20;;;;;;;;;;;6.30;85.60;;;;;;5115101;28;19947;-86
2022/11/06 04:57:46;;;;;;;;;;;6.40;86.10;;;;;;5115013;28;19939;-86
2022/11/06 05:00:12;;;;;;;;;;;6.40;86.00;;;;;;5114860;28;19964;-86
2022/11/06 05:02:38;;;;;;;;;;;6.40;85.80;;;;;;5114903;28;19936;-86
2022/11/06 05:05:04;;;;;;;;;;;6.30;85.40;;;;;;5114881;28;19935;-86
2022/11/06 05:07:29;;;;;;;;;;;6.40;85.40;;;;;;5114773;28;20354;-86
2022/11/06 05:09:55;;;;;;;;;;;6.40;85.60;;;;;;5114736;28;20027;-86
2022/11/06 05:12:20;;;;;;;;;;;6.40;85.70;;;;;;5114734;28;20155;-86
2022/11/06 05:14:46;;;;;;;;;;;6.40;85.80;;;;;;5114690;28;20016;-87
2022/11/06 05:17:11;;;;;;;;;;;6.50;85.60;;;;;;5114608;28;19940;-86
2022/11/06 05:19:37;;;;;;;;;;;6.40;85.40;;;;;;5114557;28;20085;-86
2022/11/06 05:24:46;;;;;;;;;;;6.20;85.90;;;;;;5114858;28;19946;-86
2022/11/06 05:27:12;;;;;;;;;;;6.10;86.40;;;;;;5114459;28;19940;-86
2022/11/06 05:29:37;;;;;;;;;;;6.10;86.80;;;;;;5114422;28;20065;-86
2022/11/06 05:32:03;;;;;;;;;;;6.10;87.00;;;;;;5114355;28;20397;-86
2022/11/06 05:34:29;;;;;;;;;;;6.10;87.20;;;;;;5114408;28;19939;-86
2022/11/06 05:36:55;;;;;;;;;;;6.40;87.20;;;;;;5114555;28;20000;-86
2022/11/06 05:39:21;;;;;;;;;;;6.30;86.80;;;;;;5114234;28;19966;-86
2022/11/06 05:41:46;;;;;;;;;;;6.30;86.70;;;;;;5114236;28;20416;-86
2022/11/06 05:44:12;;;;;;;;;;;6.20;86.90;;;;;;5114182;28;19957;-86
2022/11/06 05:46:37;;;;;;;;;;;6.20;87.00;;;;;;5114161;28;20312;-86
2022/11/06 05:49:03;;;;;;;;;;;6.20;87.30;;;;;;5113753;28;20303;-86
2022/11/06 05:51:29;;;;;;;;;;;6.20;87.60;;;;;;5100943;28;20374;-86
2022/11/06 05:53:54;;;;;;;;;;;6.30;87.70;;;;;;5093638;28;20417;-86
2022/11/06 05:56:20;;;;;;;;;;;6.30;87.20;;;;;;5093598;28;20358;-86
2022/11/06 05:58:45;;;;;;;;;;;6.30;85.80;;;;;;5093584;28;19937;-86
2022/11/06 06:01:11;;;;;;;;;;;6.30;84.80;;;;;;5093521;28;19970;-86
2022/11/06 06:03:37;;;;;;;;;;;6.40;84.50;;;;;;5093507;28;20390;-86
2022/11/06 06:06:02;;;;;;;;;;;6.40;84.50;;;;;;5093472;28;19941;-86
2022/11/06 06:08:28;;;;;;;;;;;6.40;84.60;;;;;;5093414;28;20402;-86
2022/11/06 06:10:53;;;;;;;;;;;6.30;84.40;;;;;;5093463;28;20426;-86
2022/11/06 06:13:19;;;;;;;;;;;6.30;83.80;;;;;;5093296;28;20455;-86
2022/11/06 06:15:45;;;;;;;;;;;6.30;84.90;;;;;;5093642;28;19940;-86
2022/11/06 06:18:10;;;;;;;;;;;6.30;84.80;;;;;;5101575;28;19942;-87
2022/11/06 06:20:36;;;;;;;;;;;6.30;86.00;;;;;;5113585;28;19961;-86
2022/11/06 06:23:02;;;;;;;;;;;6.30;86.00;;;;;;5113595;28;20400;-86
2022/11/06 06:25:28;;;;;;;;;;;6.20;86.50;;;;;;5113881;28;19941;-86
2022/11/06 06:27:54;;;;;;;;;;;6.20;87.80;;;;;;5113554;28;20028;-86
2022/11/06 06:30:21;;;;;;;;;;;6.20;86.40;;;;;;5106529;22;20222;-86
2022/11/06 06:32:46;;;;;;;;;;;6.20;86.20;;;;;;5093152;28;19940;-86
2022/11/06 06:35:12;;;;;;;;;;;6.30;86.70;;;;;;5093206;28;19948;-86
2022/11/06 06:37:37;;;;;;;;;;;6.40;86.50;;;;;;5093198;28;19942;-86
2022/11/06 06:40:03;;;;;;;;;;;6.40;86.00;;;;;;5093020;28;20501;-86
2022/11/06 06:42:29;;;;;;;;;;;6.40;86.00;;;;;;5093025;28;20457;-86
2022/11/06 06:44:55;;;;;;;;;;;6.40;86.20;;;;;;5091788;28;19945;-86
2022/11/06 06:47:21;;;;;;;;;;;6.40;86.50;;;;;;5093080;28;19943;-86
2022/11/06 06:49:46;;;;;;;;;;;6.50;86.40;;;;;;5093059;28;20388;-86
2022/11/06 06:52:12;;;;;;;;;;;6.40;86.60;;;;;;5092835;28;20387;-86
2022/11/06 06:54:38;;;;;;;;;;;6.40;87.20;;;;;;5091748;28;20394;-86
2022/11/06 06:57:05;;;;;;;;;;;6.40;87.60;;;;;;5092973;28;19942;-86
2022/11/06 06:59:31;;;;;;;;;;;6.50;87.70;;;;;;5092867;28;19963;-86
2022/11/06 07:01:56;;;;;;;;;;;6.50;87.60;;;;;;5095729;28;20367;-86
2022/11/06 07:04:22;;;;;;;;;;;6.70;87.60;;;;;;5096875;28;19941;-86
2022/11/06 07:06:48;;;;;;;;;;;6.80;87.70;;;;;;5096854;28;20030;-86
2022/11/06 07:09:14;;;;;;;;;;;6.90;87.40;;;;;;5096817;28;19941;-86
2022/11/06 07:11:39;;;;;;;;;;;7.00;87.30;;;;;;5096971;28;20398;-86
2022/11/06 07:14:05;;;;;;;;;;;7.10;87.20;;;;;;5096741;28;20357;-86
2022/11/06 07:16:31;;;;;;;;;;;7.20;86.90;;;;;;5096699;28;19994;-86
2022/11/06 07:18:56;;;;;;;;;;;7.20;86.90;;;;;;5096521;28;19944;-86
2022/11/06 07:21:22;;;;;;;;;;;7.30;86.50;;;;;;5096475;28;19960;-86
2022/11/06 07:23:48;;;;;;;;;;;7.40;86.40;;;;;;5096541;28;19940;-86
2022/11/06 07:26:13;;;;;;;;;;;7.40;86.40;;;;;;5096427;28;20389;-86
2022/11/06 07:28:39;;;;;;;;;;;7.40;86.30;;;;;;5096384;28;20434;-86
2022/11/06 07:31:05;;;;;;;;;;;7.50;86.00;;;;;;5096189;28;20439;-86
2022/11/06 07:33:31;;;;;;;;;;;7.50;85.80;;;;;;5096310;28;20023;-86
2022/11/06 07:36:23;;;;;;;;;;;7.70;84.70;;;;;;5096261;28;20405;-86
2022/11/06 07:38:48;;;;;;;;;;;7.90;84.10;;;;;;5093093;28;20349;-86
2022/11/06 07:41:14;;;;;;;;;;;8.20;81.90;;;;;;5096117;28;19956;-86
2022/11/06 07:43:40;;;;;;;;;;;8.40;83.20;;;;;;5096196;28;20010;-86
2022/11/06 07:46:07;;;;;;;;;;;8.50;82.40;;;;;;5096059;28;19942;-86
2022/11/06 07:48:32;;;;;;;;;;;8.60;82.80;;;;;;5096039;28;19961;-86
2022/11/06 07:51:00;;;;;;;;;;;8.60;83.00;;;;;;5095983;28;20045;-86
2022/11/06 07:53:26;;;;;;;;;;;8.70;83.40;;;;;;5095917;28;19942;-86
2022/11/06 07:55:52;;;;;;;;;;;8.90;83.80;;;;;;5095941;28;20015;-86
2022/11/06 07:58:18;;;;;;;;;;;9.00;84.10;;;;;;5095895;28;19974;-86
2022/11/06 08:00:51;;;;;;;;;;;9.10;84.30;;;;;;5095731;28;20002;-87
2022/11/06 08:03:17;;;;;;;;;;;9.20;84.00;;;;;;5095778;28;19949;-87
2022/11/06 08:05:42;;;;;;;;;;;9.40;83.90;;;;;;5095756;28;19942;-86
2022/11/06 08:08:08;;;;;;;;;;;9.50;83.80;;;;;;5095709;28;19947;-86
2022/11/06 08:10:36;;;;;;;;;;;9.60;83.70;;;;;;5095599;28;19989;-87
2022/11/06 08:13:02;;;;;;;;;;;9.70;83.80;;;;;;5095546;28;19983;-87
2022/11/06 08:15:27;;;;;;;;;;;9.80;83.60;;;;;;5095536;28;19976;-87
2022/11/06 08:17:53;;;;;;;;;;;9.90;83.10;;;;;;5095507;28;19940;-87
2022/11/06 08:20:19;;;;;;;;;;;10.10;82.80;;;;;;5095384;28;19965;-87
2022/11/06 08:22:44;;;;;;;;;;;10.20;82.60;;;;;;5095387;28;19966;-87
2022/11/06 08:25:10;;;;;;;;;;;10.30;81.00;;;;;;5095636;28;19940;-87
2022/11/06 08:27:36;;;;;;;;;;;10.40;79.60;;;;;;5094027;28;19964;-87
2022/11/06 08:30:02;;;;;;;;;;;10.60;78.50;;;;;;5095109;28;20440;-87
2022/11/06 08:32:28;;;;;;;;;;;10.80;77.90;;;;;;5095200;28;19937;-86
2022/11/06 08:34:53;;;;;;;;;;;10.90;77.20;;;;;;5095102;28;19966;-87
2022/11/06 08:37:19;;;;;;;;;;;11.10;76.10;;;;;;5095074;28;19996;-86
2022/11/06 08:39:45;;;;;;;;;;;11.20;75.10;;;;;;5095019;28;19989;-86
2022/11/06 08:42:10;;;;;;;;;;;11.40;74.40;;;;;;5095144;28;20424;-87
2022/11/06 08:44:36;;;;;;;;;;;11.60;74.80;;;;;;5095014;28;20039;-87
2022/11/06 08:47:02;;;;;;;;;;;11.80;75.00;;;;;;5094920;28;19942;-87
2022/11/06 08:49:27;;;;;;;;;;;11.90;75.50;;;;;;5094917;28;20306;-87
2022/11/06 08:51:53;;;;;;;;;;;12.10;75.40;;;;;;5094660;28;19952;-86
2022/11/06 08:54:19;;;;;;;;;;;12.20;71.20;;;;;;5094761;28;20397;-87
2022/11/06 08:56:44;;;;;;;;;;;12.20;67.70;;;;;;5094752;28;20282;-87
2022/11/06 08:59:10;;;;;;;;;;;12.40;65.50;;;;;;5094655;28;19947;-87
2022/11/06 09:01:35;;;;;;;;;;;12.40;65.10;;;;;;5094561;28;19938;-87
2022/11/06 09:04:01;;;;;;;;;;;12.60;64.10;;;;;;5094647;28;19953;-87
2022/11/06 09:06:27;;;;;;;;;;;12.70;63.50;;;;;;5094551;28;19935;-87
2022/11/06 09:08:52;;;;;;;;;;;12.80;61.30;;;;;;5094518;28;20240;-87
2022/11/06 09:11:18;;;;;;;;;;;12.90;60.40;;;;;;5094404;28;20306;-86
2022/11/06 09:13:43;;;;;;;;;;;13.00;60.80;;;;;;5094404;28;19936;-87
2022/11/06 09:16:09;;;;;;;;;;;13.10;60.10;;;;;;5094420;28;19941;-87
2022/11/06 09:18:34;;;;;;;;;;;13.20;60.70;;;;;;5094390;28;20027;-87
2022/11/06 09:21:00;;;;;;;;;;;13.40;61.30;;;;;;5094111;28;20001;-86
2022/11/06 09:23:25;;;;;;;;;;;13.40;61.90;;;;;;5093397;28;19946;-87
2022/11/06 09:25:51;;;;;;;;;;;13.50;60.20;;;;;;5094193;28;20029;-86
2022/11/06 09:28:16;;;;;;;;;;;13.60;59.40;;;;;;5094132;28;20425;-87
2022/11/06 09:30:42;;;;;;;;;;;13.70;60.00;;;;;;5093922;28;19976;-87
2022/11/06 09:33:07;;;;;;;;;;;13.80;59.50;;;;;;5094000;28;19939;-87
2022/11/06 09:35:34;;;;;;;;;;;13.90;58.30;;;;;;5093978;28;19943;-87
2022/11/06 09:38:03;;;;;;;;;;;13.90;55.90;;;;;;5093963;28;19943;-87
2022/11/06 09:40:48;;;;;;;;;;;14.00;55.80;;;;;;5093859;28;19959;-87
2022/11/06 09:43:14;;;;;;;;;;;14.00;57.40;;;;;;5094121;28;19946;-87
2022/11/06 09:45:40;;;;;;;;;;;14.00;58.60;;;;;;5093837;28;20430;-87
2022/11/06 09:48:08;;;;;;;;;;;14.10;59.00;;;;;;5093790;28;19946;-87
2022/11/06 09:50:35;;;;;;;;;;;14.20;59.20;;;;;;5093709;28;20410;-86
2022/11/06 09:53:24;;;;;;;;;;;14.20;58.20;;;;;;5093806;28;19960;-87
2022/11/06 09:55:50;;;;;;;;;;;14.20;58.30;;;;;;5093520;28;19943;-87
2022/11/06 09:58:19;;;;;;;;;;;14.30;61.50;;;;;;5093565;28;19935;-87
2022/11/06 10:00:44;;;;;;;;;;;14.40;58.40;;;;;;5093547;28;19960;-87
2022/11/06 10:03:12;;;;;;;;;;;14.40;57.90;;;;;;5093583;28;19942;-87
2022/11/06 10:05:39;;;;;;;;;;;14.40;56.40;;;;;;5093522;28;20388;-87
2022/11/06 10:08:06;;;;;;;;;;;14.50;56.40;;;;;;5093461;28;20034;-87
2022/11/06 10:10:40;;;;;;;;;;;14.70;55.60;;;;;;5093467;28;20042;-87
2022/11/06 10:13:24;;;;;;;;;;;14.70;56.10;;;;;;5093460;28;20430;-87
2022/11/06 10:16:01;;;;;;;;;;;14.80;54.80;;;;;;5093417;28;19935;-87
2022/11/06 10:18:40;;;;;;;;;;;14.80;53.80;;;;;;5093328;28;20005;-87
2022/11/06 10:21:09;;;;;;;;;;;14.90;54.20;;;;;;5093304;28;19961;-87
2022/11/06 10:23:42;;;;;;;;;;;15.00;52.50;;;;;;5093547;28;19947;-87
2022/11/06 10:26:13;;;;;;;;;;;15.00;51.90;;;;;;5093231;28;20023;-87
2022/11/06 10:28:54;;;;;;;;;;;15.10;51.90;;;;;;5093310;28;19940;-87
2022/11/06 10:31:25;;;;;;;;;;;15.20;51.90;;;;;;5093274;28;20046;-87
2022/11/06 10:33:54;;;;;;;;;;;15.20;52.00;;;;;;5093269;28;19943;-87
2022/11/06 10:36:25;;;;;;;;;;;15.40;51.80;;;;;;5097100;28;19988;-87
2022/11/06 10:38:51;;;;;;;;;;;15.50;52.90;;;;;;5097516;28;20010;-87
2022/11/06 10:41:36;;;;;;;;;;;15.60;51.50;;;;;;5097270;28;20433;-87
2022/11/06 10:44:06;;;;;;;;;;;15.80;51.20;;;;;;5097277;28;19948;-87
2022/11/06 10:46:32;;;;;;;;;;;15.90;51.30;;;;;;5097526;28;19965;-87
2022/11/06 10:48:59;;;;;;;;;;;16.00;50.70;;;;;;5097182;28;19945;-87
2022/11/06 10:51:37;;;;;;;;;;;16.10;51.60;;;;;;5095797;28;19958;-87
2022/11/06 10:54:21;;;;;;;;;;;16.30;52.10;;;;;;5097007;28;20461;-87
2022/11/06 10:56:55;;;;;;;;;;;16.40;51.10;;;;;;5097088;28;19937;-87
2022/11/06 10:59:21;;;;;;;;;;;16.60;51.00;;;;;;5096945;28;20399;-87
2022/11/06 11:01:46;;;;;;;;;;;16.80;52.00;;;;;;5096972;28;19941;-87
2022/11/06 11:04:12;;;;;;;;;;;17.00;50.40;;;;;;5096941;28;20037;-87
2022/11/06 11:06:39;;;;;;;;;;;17.30;48.50;;;;;;5096888;28;19936;-87
2022/11/06 11:09:24;;;;;;;;;;;17.30;45.60;;;;;;5097168;28;19938;-87
2022/11/06 11:11:50;;;;;;;;;;;17.50;44.20;;;;;;5096679;28;20406;-87
2022/11/06 11:14:21;;;;;;;;;;;17.70;43.60;;;;;;5096678;28;19942;-87
2022/11/06 11:16:47;;;;;;;;;;;17.80;46.20;;;;;;5096607;28;20293;-87
2022/11/06 11:19:23;;;;;;;;;;;17.70;44.90;;;;;;5096602;28;19945;-87
2022/11/06 11:21:53;;;;;;;;;;;17.70;44.30;;;;;;5096612;28;19940;-87
2022/11/06 11:24:18;;;;;;;;;;;17.80;44.30;;;;;;5096607;28;19937;-87
2022/11/06 11:26:46;;;;;;;;;;;18.10;43.10;;;;;;5096483;28;20030;-87
2022/11/06 11:29:22;;;;;;;;;;;18.30;43.60;;;;;;5096338;28;19988;-87
2022/11/06 11:31:53;;;;;;;;;;;18.30;44.60;;;;;;5096366;28;20494;-87
2022/11/06 11:34:26;;;;;;;;;;;18.30;44.20;;;;;;5096455;28;19981;-87
2022/11/06 11:37:02;;;;;;;;;;;18.70;45.00;;;;;;5096346;28;20112;-88
2022/11/06 11:39:29;;;;;;;;;;;19.20;44.40;;;;;;5096248;28;20392;-87
2022/11/06 11:42:13;;;;;;;;;;;19.70;41.90;;;;;;5096244;28;19938;-87
2022/11/06 11:44:39;;;;;;;;;;;20.30;41.70;;;;;;5096204;28;19941;-87
2022/11/06 11:47:18;;;;;;;;;;;20.80;40.00;;;;;;5095470;28;20402;-87
2022/11/06 11:49:44;;;;;;;;;;;21.20;40.30;;;;;;5096357;28;19983;-87
2022/11/06 11:52:11;;;;;;;;;;;21.20;39.40;;;;;;5095886;28;20021;-87
2022/11/06 11:54:38;;;;;;;;;;;20.90;40.30;;;;;;5096045;28;20477;-87
2022/11/06 11:57:16;;;;;;;;;;;21.10;39.40;;;;;;5094645;28;19942;-87
2022/11/06 11:59:47;;;;;;;;;;;21.20;40.20;;;;;;5095699;28;19968;-87
2022/11/06 12:02:15;;;;;;;;;;;20.80;40.70;;;;;;5096130;28;19947;-87
2022/11/06 12:04:42;;;;;;;;;;;20.80;41.00;;;;;;5095384;28;19944;-87
2022/11/06 12:07:13;;;;;;;;;;;21.30;39.40;;;;;;5096088;28;19946;-87
2022/11/06 12:09:43;;;;;;;;;;;21.60;38.70;;;;;;5095619;28;20350;-87
2022/11/06 12:12:22;;;;;;;;;;;21.70;39.80;;;;;;5095704;28;20385;-87
2022/11/06 12:15:02;;;;;;;;;;;21.80;39.30;;;;;;5095873;28;20038;-87
2022/11/06 12:17:29;;;;;;;;;;;21.70;40.00;;;;;;5095605;28;20420;-87
2022/11/06 12:19:57;;;;;;;;;;;21.90;39.40;;;;;;5095445;28;19988;-87
2022/11/06 12:22:28;;;;;;;;;;;22.00;38.30;;;;;;5095511;28;19951;-87
2022/11/06 12:24:57;;;;;;;;;;;22.30;38.20;;;;;;5095511;28;19943;-87
2022/11/06 12:27:36;;;;;;;;;;;22.40;38.10;;;;;;5095372;28;20000;-87
2022/11/06 12:30:06;;;;;;;;;;;22.40;39.60;;;;;;5095238;28;19974;-87
2022/11/06 12:32:50;;;;;;;;;;;22.30;37.00;;;;;;5094883;28;20500;-87
2022/11/06 12:35:23;;;;;;;;;;;22.30;36.60;;;;;;5095181;28;19948;-87
2022/11/06 12:38:15;;;;;;;;;;;22.60;37.90;;;;;;5095436;28;19949;-87
2022/11/06 12:40:44;;;;;;;;;;;22.50;36.90;;;;;;5078601;28;19965;-87
2022/11/06 12:43:13;;;;;;;;;;;23.30;35.40;;;;;;5093843;28;19971;-87
2022/11/06 12:45:50;;;;;;;;;;;23.50;35.30;;;;;;5094971;28;19987;-87
2022/11/06 12:48:19;;;;;;;;;;;23.20;37.20;;;;;;5094963;28;20390;-87
2022/11/06 12:50:50;;;;;;;;;;;22.30;37.80;;;;;;5095100;28;20093;-87
2022/11/06 12:53:37;;;;;;;;;;;22.20;37.10;;;;;;5094772;28;19947;-87
2022/11/06 12:56:22;;;;;;;;;;;22.30;37.80;;;;;;5094782;28;20039;-87
2022/11/06 12:58:50;;;;;;;;;;;21.90;38.00;;;;;;5093696;28;20296;-87
2022/11/06 13:01:21;;;;;;;;;;;21.40;38.20;;;;;;5094604;28;20049;-87
2022/11/06 13:03:49;;;;;;;;;;;21.40;39.20;;;;;;5094572;28;20400;-87
2022/11/06 13:06:26;;;;;;;;;;;22.00;37.60;;;;;;5094594;28;19942;-87
2022/11/06 13:08:51;;;;;;;;;;;22.00;37.80;;;;;;5094590;28;20025;-87
2022/11/06 13:11:23;;;;;;;;;;;22.50;37.10;;;;;;5094530;28;20031;-87
2022/11/06 13:13:56;;;;;;;;;;;22.30;38.30;;;;;;5094453;28;19948;-87
2022/11/06 13:16:46;;;;;;;;;;;22.30;37.90;;;;;;5094415;28;19940;-87
2022/11/06 13:19:21;;;;;;;;;;;22.40;38.70;;;;;;5094380;28;19943;-87
2022/11/06 13:21:49;;;;;;;;;;;22.30;37.20;;;;;;5094316;28;19945;-87
2022/11/06 13:24:28;;;;;;;;;;;22.50;36.40;;;;;;5094168;28;20402;-87
2022/11/06 13:26:58;;;;;;;;;;;22.30;36.40;;;;;;5094200;28;20435;-87
2022/11/06 13:29:24;;;;;;;;;;;22.20;35.30;;;;;;5094038;28;19976;-87
2022/11/06 13:31:52;;;;;;;;;;;22.30;36.80;;;;;;5094108;28;19995;-87
2022/11/06 13:34:23;;;;;;;;;;;22.50;36.90;;;;;;5094022;28;19939;-87
2022/11/06 13:36:49;;;;;;;;;;;22.60;34.90;;;;;;5094064;28;19987;-87
2022/11/06 13:39:25;;;;;;;;;;;22.50;35.60;;;;;;5093979;28;19940;-87
2022/11/06 13:41:51;;;;;;;;;;;22.30;37.10;;;;;;5092659;28;19949;-87
2022/11/06 13:44:18;;;;;;;;;;;22.30;35.80;;;;;;5092560;28;19943;-87
2022/11/06 13:46:46;;;;;;;;;;;22.20;34.80;;;;;;5093895;28;19948;-86
2022/11/06 13:49:20;;;;;;;;;;;21.60;38.70;;;;;;5094063;28;20046;-87
2022/11/06 13:51:50;;;;;;;;;;;21.70;38.20;;;;;;5093874;28;19960;-87
2022/11/06 13:54:27;;;;;;;;;;;21.90;36.80;;;;;;5093685;28;20405;-87
2022/11/06 13:56:53;;;;;;;;;;;22.10;38.20;;;;;;5093667;28;19943;-87
2022/11/06 13:59:21;;;;;;;;;;;22.30;39.70;;;;;;5093553;28;19944;-87
2022/11/06 14:02:02;;;;;;;;;;;22.50;38.10;;;;;;5093585;28;19938;-87
2022/11/06 14:04:36;;;;;;;;;;;22.50;38.00;;;;;;5093569;28;20384;-87
2022/11/06 14:07:03;;;;;;;;;;;22.50;37.20;;;;;;5093569;28;20214;-87
2022/11/06 14:09:30;;;;;;;;;;;22.60;37.00;;;;;;5093206;28;19939;-87
2022/11/06 14:11:57;;;;;;;;;;;22.80;37.00;;;;;;5093439;28;19959;-87
2022/11/06 14:14:24;;;;;;;;;;;22.80;38.70;;;;;;5093493;28;19942;-87
2022/11/06 14:17:08;;;;;;;;;;;23.00;38.20;;;;;;5093494;28;19999;-87
2022/11/06 14:19:34;;;;;;;;;;;23.00;38.20;;;;;;5093304;28;19941;-87
2022/11/06 14:22:16;;;;;;;;;;;22.90;38.30;;;;;;5093359;28;20333;-87
2022/11/06 14:24:43;;;;;;;;;;;23.00;39.20;;;;;;5093417;28;19942;-87
2022/11/06 14:27:09;;;;;;;;;;;22.50;38.80;;;;;;5093372;28;19970;-87
2022/11/06 14:29:34;;;;;;;;;;;22.40;39.60;;;;;;5106346;22;19981;-87
2022/11/06 14:32:12;;;;;;;;;;;22.70;39.80;;;;;;5113540;28;19942;-87
2022/11/06 14:34:38;;;;;;;;;;;22.80;38.60;;;;;;5113820;28;19950;-87
2022/11/06 14:37:27;;;;;;;;;;;22.80;37.90;;;;;;5113555;28;19938;-87
2022/11/06 14:39:52;;;;;;;;;;;22.30;38.70;;;;;;5104899;28;19965;-87
2022/11/06 14:42:27;;;;;;;;;;;22.20;40.40;;;;;;5113497;28;19982;-87
2022/11/06 14:44:58;;;;;;;;;;;21.90;41.20;;;;;;5113475;28;19949;-87
2022/11/06 14:47:23;;;;;;;;;;;21.60;41.40;;;;;;5113649;28;20020;-87